map of PSG home
PSG - Airport
Location
City:  Petersburg, Alaska, United States
Name:Petersburg James A Johnson Airport
ICAO:PAPG
IATA:PSG
FAA LID:PSG

Details
Type:Airport (Part 139 Class I)
Use:Public/Civil
Latitude:5648'05"N (56.801472)
Longitude:13256'46"W (-132.946221)
Datum:WGS 1984
Elevation:113 ft (34 m)
Variation:18.73E (WMM2015v2 magnetic declination)
-0.19 annual change
Runways:1
Longest:6400 × 150 ft (1951 × 45.5 m), paved

Time
Time Zone:UTC-9 (DST-8)
Local Time:

Weather
METAR:PAPG 041356Z AUTO 00000KT 10SM OVC046 M08/M12 A3016 RMK AO2 SLP218 T10831122 FZRANO
TAF:PAPG 041122Z 0412/0512 00000KT P6SM FEW150
FM041800 VRB03KT P6SM BKN040 OVC080 PROB30 0421/0502 4SM -SHSN OVC020
AMD LTD TO CLD VIS AND WIND 0412/0415

Related Locations
Nearby:
Farthest:AFD: 10565 mi / 17002 km
Port Alfred, EC, ZA

Find:

   beyond  
but within

Other Information
Maps:
NOTAMs:
Links:
Sources:

  
  • flag of United States
  • flag of Alaska
  

Sectional Chart

Flight Planning
at skyvector.com

Satellite Image

Google Maps Satellite view

 

Copyright © 2004-2019 Karl L. Swartz. All rights reserved.
The Great Circle Mapper name and logo are trademarks of the Great Circle Mapper.
All other trademarks mentioned herein belong to their respective owners.
Please see credits for attibutions and further copyright information.

  Follow gcmap on Facebook Follow gcmap on Twitter GCmap on LinkedIn

hCard Microformat

Geo Microformat